Time;durP1;ratioP1;P1;durP2;ratioP2;P2;SDS_P1;SDS_P2;PMS_P1;PMS_P2;Temp;Humidity;BMP_temperature;BMP_pressure;BME280_temperature;BME280_humidity;BME280_pressure;Samples;Min_cycle;Max_cycle;Signal;HPM_P1;HPM_P2
2023/03/24 00:00:12;;;;;;;4.50;1.77;;;;;;;;;;5074229;28;20650;-60
2023/03/24 00:02:40;;;;;;;3.73;2.03;;;;;;;;;;5074149;28;20234;-60
2023/03/24 00:05:07;;;;;;;2.90;1.93;;;;;;;;;;5073681;28;20870;-60
2023/03/24 00:07:33;;;;;;;5.40;2.33;;;;;;;;;;5073301;28;20199;-61
2023/03/24 00:10:00;;;;;;;4.83;2.30;;;;;;;;;;5073754;28;20776;-61
2023/03/24 00:12:26;;;;;;;3.07;1.90;;;;;;;;;;5074070;28;20204;-61
2023/03/24 00:14:53;;;;;;;2.97;2.20;;;;;;;;;;5073908;28;20287;-60
2023/03/24 00:17:24;;;;;;;3.63;2.00;;;;;;;;;;5073353;28;20199;-61
2023/03/24 00:19:50;;;;;;;3.07;2.10;;;;;;;;;;5073839;28;20222;-60
2023/03/24 00:22:16;;;;;;;3.43;2.30;;;;;;;;;;5073947;28;20228;-60
2023/03/24 00:24:45;;;;;;;3.60;2.47;;;;;;;;;;5073785;28;20210;-59
2023/03/24 00:27:12;;;;;;;5.30;2.50;;;;;;;;;;5073971;28;20195;-59
2023/03/24 00:29:39;;;;;;;2.70;2.00;;;;;;;;;;5073301;28;20250;-58
2023/03/24 00:32:05;;;;;;;4.67;2.30;;;;;;;;;;5072973;28;20191;-58
2023/03/24 00:34:33;;;;;;;5.83;2.10;;;;;;;;;;5073757;28;20199;-58
2023/03/24 00:36:59;;;;;;;4.43;2.30;;;;;;;;;;5073467;28;20204;-57
2023/03/24 00:39:25;;;;;;;5.53;2.17;;;;;;;;;;5073516;28;20245;-58
2023/03/24 00:41:51;;;;;;;3.20;2.27;;;;;;;;;;5072956;28;20195;-58
2023/03/24 00:44:18;;;;;;;5.13;2.60;;;;;;;;;;5073589;28;20219;-57
2023/03/24 00:46:44;;;;;;;4.90;2.67;;;;;;;;;;5073051;28;20795;-56
2023/03/24 00:49:11;;;;;;;4.30;2.57;;;;;;;;;;5073394;28;20285;-56
2023/03/24 00:51:39;;;;;;;4.40;2.40;;;;;;;;;;5072901;28;20214;-56
2023/03/24 00:54:05;;;;;;;4.27;3.17;;;;;;;;;;5072012;28;20206;-57
2023/03/24 00:56:33;;;;;;;3.60;2.37;;;;;;;;;;5073328;28;20196;-59
2023/03/24 00:59:01;;;;;;;6.70;2.70;;;;;;;;;;5072892;28;20191;-58
2023/03/24 01:01:31;;;;;;;3.70;2.50;;;;;;;;;;5069486;28;20203;-57
2023/03/24 01:03:59;;;;;;;3.07;2.60;;;;;;;;;;5072928;28;20239;-58
2023/03/24 01:06:25;;;;;;;4.90;2.60;;;;;;;;;;5073129;28;20212;-57
2023/03/24 01:08:52;;;;;;;4.23;2.53;;;;;;;;;;5072799;28;20705;-57
2023/03/24 01:11:19;;;;;;;3.40;2.70;;;;;;;;;;5073030;28;20207;-57
2023/03/24 01:13:45;;;;;;;5.80;2.67;;;;;;;;;;5072811;28;20274;-58
2023/03/24 01:16:11;;;;;;;3.57;2.50;;;;;;;;;;5072779;28;20718;-56
2023/03/24 01:18:39;;;;;;;3.97;2.50;;;;;;;;;;5072977;28;20282;-59
2023/03/24 01:21:05;;;;;;;4.37;2.60;;;;;;;;;;5072566;28;20203;-57
2023/03/24 01:23:33;;;;;;;4.97;2.80;;;;;;;;;;5072455;28;20206;-58
2023/03/24 01:25:59;;;;;;;4.73;2.50;;;;;;;;;;5072282;28;20269;-58
2023/03/24 01:28:26;;;;;;;4.20;2.30;;;;;;;;;;5072347;28;20570;-59
2023/03/24 01:30:52;;;;;;;5.57;2.90;;;;;;;;;;5072405;28;20278;-57
2023/03/24 01:33:18;;;;;;;8.50;3.33;;;;;;;;;;5072403;28;20253;-58
2023/03/24 01:35:46;;;;;;;4.43;3.10;;;;;;;;;;5072214;28;20200;-58
2023/03/24 01:38:12;;;;;;;3.60;2.70;;;;;;;;;;5072281;28;20283;-58
2023/03/24 01:40:40;;;;;;;4.83;2.60;;;;;;;;;;5072319;28;20188;-57
2023/03/24 01:43:07;;;;;;;2.83;2.50;;;;;;;;;;5071242;28;20220;-57
2023/03/24 01:45:41;;;;;;;6.33;2.70;;;;;;;;;;5072067;28;20204;-58
2023/03/24 01:48:08;;;;;;;4.00;2.90;;;;;;;;;;5072331;28;20187;-58
2023/03/24 01:50:34;;;;;;;4.10;2.60;;;;;;;;;;5071967;28;20227;-58
2023/03/24 01:53:02;;;;;;;3.90;2.80;;;;;;;;;;5071761;28;20669;-58
2023/03/24 01:55:29;;;;;;;3.43;2.63;;;;;;;;;;5071964;28;20207;-58
2023/03/24 01:57:57;;;;;;;4.20;2.50;;;;;;;;;;5071933;28;20207;-58
2023/03/24 02:00:23;;;;;;;6.43;3.10;;;;;;;;;;5071987;28;20646;-58
2023/03/24 02:02:53;;;;;;;4.03;2.70;;;;;;;;;;5071791;28;20195;-58
2023/03/24 02:05:21;;;;;;;4.67;2.40;;;;;;;;;;5071627;28;20721;-58
2023/03/24 02:07:51;;;;;;;5.67;2.70;;;;;;;;;;5071654;28;20192;-57
2023/03/24 02:10:19;;;;;;;4.93;2.63;;;;;;;;;;5071092;28;20284;-58
2023/03/24 02:12:45;;;;;;;2.63;2.43;;;;;;;;;;5070980;28;20660;-58
2023/03/24 02:15:12;;;;;;;6.63;3.57;;;;;;;;;;5071047;28;20226;-58
2023/03/24 02:17:50;;;;;;;3.77;2.80;;;;;;;;;;5071112;28;20195;-58
2023/03/24 02:20:25;;;;;;;4.37;2.60;;;;;;;;;;5071026;28;20287;-58
2023/03/24 02:22:58;;;;;;;6.00;3.03;;;;;;;;;;5070968;28;20629;-58
2023/03/24 02:25:37;;;;;;;4.00;2.60;;;;;;;;;;5071116;28;20206;-58
2023/03/24 02:28:08;;;;;;;3.57;2.47;;;;;;;;;;5070833;28;20199;-59
2023/03/24 02:30:49;;;;;;;4.67;3.00;;;;;;;;;;5070787;28;20223;-58
2023/03/24 02:33:34;;;;;;;3.03;2.33;;;;;;;;;;5058060;28;20612;-58
2023/03/24 02:36:31;;;;;;;3.40;2.47;;;;;;;;;;5070607;28;20191;-63
2023/03/24 02:39:12;;;;;;;4.10;2.67;;;;;;;;;;5070649;28;20210;-57
2023/03/24 02:41:40;;;;;;;3.10;2.80;;;;;;;;;;5070768;28;20191;-58
2023/03/24 02:44:10;;;;;;;4.10;2.40;;;;;;;;;;5070768;28;20817;-59
2023/03/24 02:46:40;;;;;;;4.57;2.57;;;;;;;;;;5070777;28;20256;-58
2023/03/24 02:49:09;;;;;;;3.70;2.60;;;;;;;;;;5070484;28;20778;-58
2023/03/24 02:51:39;;;;;;;3.03;2.60;;;;;;;;;;5071303;28;20206;-58
2023/03/24 02:54:08;;;;;;;4.87;2.60;;;;;;;;;;5071537;28;20203;-58
2023/03/24 02:56:38;;;;;;;2.40;2.20;;;;;;;;;;5075420;28;20206;-59
2023/03/24 02:59:05;;;;;;;4.93;2.83;;;;;;;;;;5075077;28;20200;-58
2023/03/24 03:01:34;;;;;;;2.77;2.30;;;;;;;;;;5075262;28;20226;-58
2023/03/24 03:04:01;;;;;;;3.73;2.63;;;;;;;;;;5075017;28;20697;-58
2023/03/24 03:06:29;;;;;;;3.13;2.50;;;;;;;;;;5075136;28;20235;-58
2023/03/24 03:08:57;;;;;;;2.70;2.50;;;;;;;;;;5074956;28;20591;-58
2023/03/24 03:11:23;;;;;;;2.60;2.40;;;;;;;;;;5075148;28;20196;-58
2023/03/24 03:13:53;;;;;;;3.37;2.30;;;;;;;;;;5074932;28;20214;-58
2023/03/24 03:16:24;;;;;;;2.80;2.60;;;;;;;;;;5074930;28;20207;-58
2023/03/24 03:18:53;;;;;;;4.20;2.60;;;;;;;;;;5074902;28;20532;-58
2023/03/24 03:21:22;;;;;;;3.73;2.40;;;;;;;;;;5074766;28;20203;-58
2023/03/24 03:23:49;;;;;;;2.93;2.30;;;;;;;;;;5074733;28;20245;-58
2023/03/24 03:26:18;;;;;;;2.90;2.60;;;;;;;;;;5074734;28;20265;-58
2023/03/24 03:28:48;;;;;;;2.77;2.13;;;;;;;;;;5074476;28;20657;-59
2023/03/24 03:31:20;;;;;;;3.23;2.30;;;;;;;;;;5074703;28;20191;-58
2023/03/24 03:33:50;;;;;;;3.40;2.27;;;;;;;;;;5074671;28;20196;-58
2023/03/24 03:36:17;;;;;;;2.33;2.13;;;;;;;;;;5074561;28;20199;-59
2023/03/24 03:38:46;;;;;;;5.03;2.33;;;;;;;;;;5074520;28;20226;-59
2023/03/24 03:41:13;;;;;;;3.83;2.00;;;;;;;;;;5074388;28;20205;-59
2023/03/24 03:43:40;;;;;;;2.83;2.20;;;;;;;;;;5074484;28;20265;-59
2023/03/24 03:46:06;;;;;;;2.47;2.27;;;;;;;;;;5074325;28;20191;-59
2023/03/24 03:48:34;;;;;;;2.50;1.90;;;;;;;;;;5074178;28;20533;-59
2023/03/24 03:51:00;;;;;;;2.50;2.30;;;;;;;;;;5074096;28;20200;-58
2023/03/24 03:53:31;;;;;;;2.83;2.33;;;;;;;;;;5074301;28;20563;-59
2023/03/24 03:55:57;;;;;;;2.47;2.20;;;;;;;;;;5074077;28;20665;-59
2023/03/24 03:58:23;;;;;;;3.00;2.20;;;;;;;;;;5074306;28;20202;-59
2023/03/24 04:00:49;;;;;;;3.70;2.33;;;;;;;;;;5074288;28;20302;-59
2023/03/24 04:03:26;;;;;;;2.40;2.20;;;;;;;;;;5073965;28;20263;-59
2023/03/24 04:05:56;;;;;;;3.10;2.20;;;;;;;;;;5073197;28;20195;-59
2023/03/24 04:08:28;;;;;;;3.33;2.20;;;;;;;;;;5074098;28;20735;-59
2023/03/24 04:11:05;;;;;;;2.97;2.37;;;;;;;;;;5073931;28;20302;-59
2023/03/24 04:13:37;;;;;;;3.70;2.40;;;;;;;;;;5073965;28;20210;-58
2023/03/24 04:16:09;;;;;;;2.93;2.10;;;;;;;;;;5073805;28;20199;-58
2023/03/24 04:18:45;;;;;;;2.40;2.20;;;;;;;;;;5073949;28;20279;-58
2023/03/24 04:21:32;;;;;;;2.80;2.30;;;;;;;;;;5073692;28;20195;-57
2023/03/24 04:24:04;;;;;;;2.50;2.10;;;;;;;;;;5073619;28;20207;-58
2023/03/24 04:26:33;;;;;;;3.33;1.97;;;;;;;;;;5073716;28;20199;-58
2023/03/24 04:29:07;;;;;;;4.20;2.27;;;;;;;;;;5073464;28;20223;-56
2023/03/24 04:31:36;;;;;;;4.40;2.47;;;;;;;;;;5073581;28;20281;-58
2023/03/24 04:34:04;;;;;;;2.97;2.70;;;;;;;;;;5073373;28;20199;-58
2023/03/24 04:36:41;;;;;;;5.00;2.33;;;;;;;;;;5073270;28;20196;-58
2023/03/24 04:39:08;;;;;;;3.00;2.70;;;;;;;;;;5073534;28;20238;-57
2023/03/24 04:41:36;;;;;;;3.33;2.67;;;;;;;;;;5073320;28;20234;-57
2023/03/24 04:44:03;;;;;;;2.50;2.30;;;;;;;;;;5073221;28;20207;-59
2023/03/24 04:46:31;;;;;;;2.70;2.50;;;;;;;;;;5073213;28;20657;-58
2023/03/24 04:48:57;;;;;;;3.13;2.60;;;;;;;;;;5073000;28;20702;-57
2023/03/24 04:51:23;;;;;;;2.73;2.53;;;;;;;;;;5073262;28;20199;-57
2023/03/24 04:53:51;;;;;;;2.93;2.70;;;;;;;;;;5073035;28;20207;-59
2023/03/24 04:56:26;;;;;;;2.90;2.57;;;;;;;;;;5073144;28;20533;-57
2023/03/24 04:58:52;;;;;;;3.43;2.60;;;;;;;;;;5073024;28;20222;-57
2023/03/24 05:01:21;;;;;;;2.93;2.73;;;;;;;;;;5072974;28;20208;-57
2023/03/24 05:03:47;;;;;;;3.03;2.83;;;;;;;;;;5072895;28;20238;-57
2023/03/24 05:06:13;;;;;;;2.90;2.63;;;;;;;;;;5072825;28;20212;-58
2023/03/24 05:08:40;;;;;;;3.43;3.13;;;;;;;;;;5072907;28;20220;-58
2023/03/24 05:11:07;;;;;;;3.60;2.90;;;;;;;;;;5072943;28;20268;-58
2023/03/24 05:13:33;;;;;;;4.10;2.53;;;;;;;;;;5072773;28;20685;-58
2023/03/24 05:16:00;;;;;;;3.70;3.40;;;;;;;;;;5072580;28;20211;-59
2023/03/24 05:18:26;;;;;;;2.97;2.60;;;;;;;;;;5072624;28;20199;-59
2023/03/24 05:20:53;;;;;;;3.20;2.90;;;;;;;;;;5072545;28;20267;-59
2023/03/24 05:23:19;;;;;;;4.47;3.20;;;;;;;;;;5072418;28;20546;-59
2023/03/24 05:25:45;;;;;;;6.80;2.97;;;;;;;;;;5072317;28;20290;-60
2023/03/24 05:28:12;;;;;;;3.40;3.10;;;;;;;;;;5072357;28;20203;-60
2023/03/24 05:30:38;;;;;;;2.97;2.77;;;;;;;;;;5072369;28;20591;-59
2023/03/24 05:33:05;;;;;;;6.47;3.93;;;;;;;;;;5072178;28;20612;-58
2023/03/24 05:35:31;;;;;;;3.67;3.23;;;;;;;;;;5072382;28;20194;-59
2023/03/24 05:37:57;;;;;;;5.30;3.23;;;;;;;;;;5072268;28;20244;-59
2023/03/24 05:40:23;;;;;;;3.47;3.17;;;;;;;;;;5072375;28;20195;-59
2023/03/24 05:42:49;;;;;;;3.60;3.30;;;;;;;;;;5072008;28;20695;-59
2023/03/24 05:45:17;;;;;;;4.10;3.17;;;;;;;;;;5072015;28;20205;-59
2023/03/24 05:47:43;;;;;;;3.70;3.03;;;;;;;;;;5072096;28;20227;-57
2023/03/24 05:50:09;;;;;;;3.63;3.33;;;;;;;;;;5071982;28;20744;-59
2023/03/24 05:52:35;;;;;;;4.77;3.50;;;;;;;;;;5072132;28;20249;-59
2023/03/24 05:55:01;;;;;;;3.47;3.17;;;;;;;;;;5071906;28;20195;-59
2023/03/24 05:57:31;;;;;;;4.80;3.10;;;;;;;;;;5072022;28;20196;-58
2023/03/24 05:59:57;;;;;;;3.67;3.37;;;;;;;;;;5071871;28;20191;-58
2023/03/24 06:02:24;;;;;;;3.70;3.40;;;;;;;;;;5072072;28;20196;-57
2023/03/24 06:04:50;;;;;;;3.90;3.60;;;;;;;;;;5071714;28;20293;-57
2023/03/24 06:07:16;;;;;;;3.47;3.17;;;;;;;;;;5071673;28;20207;-57
2023/03/24 06:09:45;;;;;;;3.50;3.20;;;;;;;;;;5071708;28;20282;-58
2023/03/24 06:12:12;;;;;;;4.70;3.50;;;;;;;;;;5071628;28;20200;-57
2023/03/24 06:14:39;;;;;;;3.90;3.50;;;;;;;;;;5071862;28;20639;-57
2023/03/24 06:17:06;;;;;;;4.00;3.60;;;;;;;;;;5071284;28;20210;-57
2023/03/24 06:19:37;;;;;;;4.10;3.70;;;;;;;;;;5071580;28;20191;-57
2023/03/24 06:22:05;;;;;;;3.97;3.60;;;;;;;;;;5071200;28;20207;-57
2023/03/24 06:24:31;;;;;;;3.73;3.43;;;;;;;;;;5071578;28;20808;-58
2023/03/24 06:27:00;;;;;;;3.27;3.07;;;;;;;;;;5071453;28;20238;-58
2023/03/24 06:29:26;;;;;;;4.17;2.90;;;;;;;;;;5070896;28;20656;-58
2023/03/24 06:31:52;;;;;;;5.70;2.67;;;;;;;;;;5071659;28;20204;-59
2023/03/24 06:34:21;;;;;;;3.60;2.77;;;;;;;;;;5071498;28;20282;-59
2023/03/24 06:36:48;;;;;;;3.13;2.40;;;;;;;;;;5071269;28;20838;-59
2023/03/24 06:39:14;;;;;;;2.73;2.30;;;;;;;;;;5071314;28;20206;-58
2023/03/24 06:41:40;;;;;;;2.50;2.30;;;;;;;;;;5071435;28;20199;-58
2023/03/24 06:44:06;;;;;;;2.60;2.40;;;;;;;;;;5071353;28;20678;-58
2023/03/24 06:46:32;;;;;;;2.83;2.60;;;;;;;;;;5071573;28;20191;-58
2023/03/24 06:48:58;;;;;;;2.57;2.37;;;;;;;;;;5071031;28;20661;-60
2023/03/24 06:51:24;;;;;;;3.10;2.80;;;;;;;;;;5071598;28;20605;-59
2023/03/24 06:53:51;;;;;;;2.40;2.20;;;;;;;;;;5071344;28;20665;-59
2023/03/24 06:56:19;;;;;;;2.50;2.30;;;;;;;;;;5071472;28;20623;-58
2023/03/24 06:58:46;;;;;;;2.33;2.13;;;;;;;;;;5071380;28;20203;-59
2023/03/24 07:01:13;;;;;;;2.50;2.00;;;;;;;;;;5071259;28;20214;-59
2023/03/24 07:03:41;;;;;;;2.10;1.83;;;;;;;;;;5071276;28;20236;-59
2023/03/24 07:06:08;;;;;;;2.50;2.03;;;;;;;;;;5071179;28;20258;-60
2023/03/24 07:08:34;;;;;;;2.87;1.90;;;;;;;;;;5071221;28;20219;-60
2023/03/24 07:11:02;;;;;;;1.90;1.70;;;;;;;;;;5071211;28;20224;-61
2023/03/24 07:13:29;;;;;;;2.57;1.83;;;;;;;;;;5071217;28;20265;-59
2023/03/24 07:15:55;;;;;;;2.70;1.70;;;;;;;;;;5071340;28;20260;-60
2023/03/24 07:18:21;;;;;;;3.67;1.67;;;;;;;;;;5071179;28;20288;-59
2023/03/24 07:20:47;;;;;;;1.70;1.60;;;;;;;;;;5071112;28;20192;-60
2023/03/24 07:23:13;;;;;;;2.97;1.93;;;;;;;;;;5071050;28;20337;-60
2023/03/24 07:25:39;;;;;;;2.67;1.80;;;;;;;;;;5071476;28;20204;-60
2023/03/24 07:28:07;;;;;;;2.53;1.50;;;;;;;;;;5071050;28;20195;-60
2023/03/24 07:30:34;;;;;;;2.80;1.60;;;;;;;;;;5071004;28;20314;-60
2023/03/24 07:33:01;;;;;;;2.47;1.50;;;;;;;;;;5070846;28;20207;-59
2023/03/24 07:35:27;;;;;;;2.03;1.70;;;;;;;;;;5070954;28;20229;-59
2023/03/24 07:37:56;;;;;;;3.03;1.77;;;;;;;;;;5071062;28;20200;-59
2023/03/24 07:40:23;;;;;;;3.00;1.50;;;;;;;;;;5071056;28;20645;-59
2023/03/24 07:42:50;;;;;;;3.27;1.63;;;;;;;;;;5073627;28;20301;-56
2023/03/24 07:45:18;;;;;;;3.13;1.70;;;;;;;;;;5074295;28;20673;-57
2023/03/24 07:47:44;;;;;;;3.70;2.00;;;;;;;;;;5074610;28;20212;-59
2023/03/24 07:50:11;;;;;;;2.60;1.40;;;;;;;;;;5074244;28;20227;-59
2023/03/24 07:52:37;;;;;;;3.37;1.40;;;;;;;;;;5074545;28;20206;-60
2023/03/24 07:55:03;;;;;;;2.50;1.60;;;;;;;;;;5074427;28;20724;-60
2023/03/24 07:57:29;;;;;;;4.27;1.50;;;;;;;;;;5074493;28;20664;-60
2023/03/24 07:59:55;;;;;;;4.30;1.93;;;;;;;;;;5074425;28;20237;-60
2023/03/24 08:02:23;;;;;;;1.57;1.40;;;;;;;;;;5074447;28;20206;-60
2023/03/24 08:04:52;;;;;;;2.47;1.60;;;;;;;;;;5074104;28;20312;-59
2023/03/24 08:07:18;;;;;;;4.50;1.53;;;;;;;;;;5074307;28;20287;-58
2023/03/24 08:09:44;;;;;;;3.10;1.60;;;;;;;;;;5074255;28;20239;-59
2023/03/24 08:12:10;;;;;;;4.10;1.33;;;;;;;;;;5074096;28;20211;-59
2023/03/24 08:14:36;;;;;;;2.03;1.50;;;;;;;;;;5074225;28;20206;-59
2023/03/24 08:17:02;;;;;;;3.47;1.83;;;;;;;;;;5074003;28;20200;-59
2023/03/24 08:19:30;;;;;;;2.13;1.50;;;;;;;;;;5073996;28;20249;-61
2023/03/24 08:21:56;;;;;;;4.87;1.80;;;;;;;;;;5073853;28;20195;-59
2023/03/24 08:24:22;;;;;;;2.37;1.70;;;;;;;;;;5073669;28;20600;-60
2023/03/24 08:26:48;;;;;;;4.97;1.83;;;;;;;;;;5073591;28;20211;-60
2023/03/24 08:29:14;;;;;;;2.20;1.60;;;;;;;;;;5073484;28;20344;-61
2023/03/24 08:31:40;;;;;;;3.57;1.50;;;;;;;;;;5073694;28;20294;-59
2023/03/24 08:34:06;;;;;;;3.53;1.50;;;;;;;;;;5073745;28;20233;-59
2023/03/24 08:36:33;;;;;;;3.37;1.70;;;;;;;;;;5073768;28;20203;-59
2023/03/24 08:39:00;;;;;;;4.93;1.73;;;;;;;;;;5073302;28;20199;-59
2023/03/24 08:41:33;;;;;;;6.90;2.00;;;;;;;;;;5073424;28;20203;-62
2023/03/24 08:43:59;;;;;;;3.40;1.80;;;;;;;;;;5073284;28;20249;-59
2023/03/24 08:46:26;;;;;;;2.17;1.40;;;;;;;;;;5073374;28;20184;-58
2023/03/24 08:48:52;;;;;;;3.03;1.87;;;;;;;;;;5073152;28;20200;-60
2023/03/24 08:51:19;;;;;;;4.67;1.70;;;;;;;;;;5072906;28;20228;-62
2023/03/24 08:53:46;;;;;;;4.33;1.70;;;;;;;;;;5072674;28;20355;-59
2023/03/24 08:56:12;;;;;;;4.73;1.90;;;;;;;;;;5072867;28;20291;-60
2023/03/24 08:58:38;;;;;;;3.23;1.40;;;;;;;;;;5072982;28;20298;-60
2023/03/24 09:01:04;;;;;;;3.43;1.63;;;;;;;;;;5072948;28;20258;-61
2023/03/24 09:03:30;;;;;;;4.67;1.80;;;;;;;;;;5072743;28;20330;-61
2023/03/24 09:05:57;;;;;;;4.50;1.70;;;;;;;;;;5072744;28;20286;-59
2023/03/24 09:08:23;;;;;;;5.47;1.90;;;;;;;;;;5072927;28;20215;-59
2023/03/24 09:10:51;;;;;;;5.10;1.73;;;;;;;;;;5072658;28;20231;-60
2023/03/24 09:13:17;;;;;;;7.97;2.00;;;;;;;;;;5072584;28;20765;-60
2023/03/24 09:15:47;;;;;;;6.87;2.40;;;;;;;;;;5072382;28;20204;-60
2023/03/24 09:18:16;;;;;;;5.03;1.63;;;;;;;;;;5072372;28;20210;-60
2023/03/24 09:20:42;;;;;;;6.37;2.37;;;;;;;;;;5072448;28;20279;-59
2023/03/24 09:23:08;;;;;;;6.93;2.07;;;;;;;;;;5072430;28;20677;-60
2023/03/24 09:25:37;;;;;;;5.53;2.10;;;;;;;;;;5072529;28;20203;-61
2023/03/24 09:28:05;;;;;;;6.67;2.33;;;;;;;;;;5072166;28;20192;-60
2023/03/24 09:30:32;;;;;;;6.93;2.40;;;;;;;;;;5072318;28;20227;-59
2023/03/24 09:32:58;;;;;;;7.07;2.40;;;;;;;;;;5072264;28;20203;-60
2023/03/24 09:35:24;;;;;;;5.80;2.40;;;;;;;;;;5072270;28;20191;-59
2023/03/24 09:37:50;;;;;;;7.40;1.93;;;;;;;;;;5072171;28;20249;-59
2023/03/24 09:40:19;;;;;;;6.20;2.23;;;;;;;;;;5072007;28;20198;-59
2023/03/24 09:42:50;;;;;;;9.27;2.13;;;;;;;;;;5071868;28;20215;-60
2023/03/24 09:45:19;;;;;;;5.67;2.40;;;;;;;;;;5072068;28;20222;-59
2023/03/24 09:47:46;;;;;;;6.87;2.10;;;;;;;;;;5072061;28;20479;-59
2023/03/24 09:50:17;;;;;;;8.57;2.23;;;;;;;;;;5071970;28;20307;-59
2023/03/24 09:52:44;;;;;;;8.50;2.53;;;;;;;;;;5072037;28;20291;-60
2023/03/24 09:55:14;;;;;;;7.30;2.37;;;;;;;;;;5072051;28;20324;-60
2023/03/24 09:57:40;;;;;;;6.37;2.47;;;;;;;;;;5072135;28;20203;-61
2023/03/24 10:00:16;;;;;;;6.50;2.50;;;;;;;;;;5071784;28;20200;-60
2023/03/24 10:02:44;;;;;;;8.97;2.60;;;;;;;;;;5071852;28;20222;-61
2023/03/24 10:05:15;;;;;;;7.87;2.30;;;;;;;;;;5070757;28;20289;-59
2023/03/24 10:07:45;;;;;;;9.57;2.80;;;;;;;;;;5071942;28;20215;-60
2023/03/24 10:10:17;;;;;;;9.60;2.67;;;;;;;;;;5071793;28;20258;-58
2023/03/24 10:12:46;;;;;;;6.20;2.20;;;;;;;;;;5071812;28;20266;-60
2023/03/24 10:15:16;;;;;;;9.80;2.37;;;;;;;;;;5071782;28;20248;-60
2023/03/24 10:17:47;;;;;;;6.93;2.60;;;;;;;;;;5071721;28;20198;-62
2023/03/24 10:20:20;;;;;;;6.20;2.40;;;;;;;;;;5071569;28;20295;-60
2023/03/24 10:22:52;;;;;;;7.63;2.43;;;;;;;;;;5071642;28;20199;-59
2023/03/24 10:25:21;;;;;;;6.13;2.20;;;;;;;;;;5071609;28;20203;-60
2023/03/24 10:27:51;;;;;;;7.50;2.30;;;;;;;;;;5071610;28;20210;-60
2023/03/24 10:30:18;;;;;;;6.03;2.53;;;;;;;;;;5071287;28;20451;-59
2023/03/24 10:32:45;;;;;;;4.87;2.43;;;;;;;;;;5071555;28;20203;-60
2023/03/24 10:35:14;;;;;;;6.70;2.30;;;;;;;;;;5071370;28;20211;-59
2023/03/24 10:37:40;;;;;;;6.70;2.30;;;;;;;;;;5071305;28;20201;-58
2023/03/24 10:40:15;;;;;;;4.67;2.07;;;;;;;;;;5071563;28;20214;-60
2023/03/24 10:42:42;;;;;;;4.60;2.20;;;;;;;;;;5071585;28;20242;-60
2023/03/24 10:45:11;;;;;;;5.07;2.13;;;;;;;;;;5071561;28;20278;-60
2023/03/24 10:47:37;;;;;;;5.27;2.40;;;;;;;;;;5071442;28;20198;-59
2023/03/24 10:50:07;;;;;;;3.83;2.00;;;;;;;;;;5071281;28;20227;-60
2023/03/24 10:52:38;;;;;;;9.83;2.50;;;;;;;;;;5071223;28;20199;-59
2023/03/24 10:55:05;;;;;;;5.87;2.90;;;;;;;;;;5071233;28;20203;-60
2023/03/24 10:57:31;;;;;;;5.37;2.30;;;;;;;;;;5071232;28;20717;-60
2023/03/24 10:59:58;;;;;;;7.67;2.13;;;;;;;;;;5071146;28;20223;-60
2023/03/24 11:02:25;;;;;;;5.30;2.20;;;;;;;;;;5071342;28;20203;-60
2023/03/24 11:04:54;;;;;;;4.37;2.43;;;;;;;;;;5071005;28;20602;-60
2023/03/24 11:07:22;;;;;;;5.87;2.30;;;;;;;;;;5071174;28;20298;-60
2023/03/24 11:09:57;;;;;;;7.63;2.43;;;;;;;;;;5071372;28;20216;-60
2023/03/24 11:12:24;;;;;;;5.10;2.03;;;;;;;;;;5071318;28;20226;-59
2023/03/24 11:14:52;;;;;;;5.23;2.20;;;;;;;;;;5071234;28;20200;-60
2023/03/24 11:17:20;;;;;;;4.63;2.30;;;;;;;;;;5074686;28;20666;-59
2023/03/24 11:19:52;;;;;;;4.57;2.40;;;;;;;;;;5074983;28;20202;-60
2023/03/24 11:22:19;;;;;;;6.93;2.53;;;;;;;;;;5074729;28;20276;-60
2023/03/24 11:24:47;;;;;;;5.53;2.43;;;;;;;;;;5074807;28;20269;-60
2023/03/24 11:27:15;;;;;;;3.73;1.87;;;;;;;;;;5074640;28;20666;-60
2023/03/24 11:29:42;;;;;;;7.87;2.50;;;;;;;;;;5074699;28;20246;-60
2023/03/24 11:32:12;;;;;;;7.87;2.77;;;;;;;;;;5074637;28;20649;-59
2023/03/24 11:34:41;;;;;;;12.33;2.57;;;;;;;;;;5074457;28;20223;-59
2023/03/24 11:37:11;;;;;;;4.40;2.33;;;;;;;;;;5074266;28;20222;-59
2023/03/24 11:39:37;;;;;;;4.90;2.10;;;;;;;;;;5074381;28;20237;-60
2023/03/24 11:42:06;;;;;;;5.97;2.43;;;;;;;;;;5074062;28;20306;-60
2023/03/24 11:44:41;;;;;;;8.47;2.33;;;;;;;;;;5074417;28;20200;-60
2023/03/24 11:47:10;;;;;;;4.90;2.37;;;;;;;;;;5074269;28;20195;-60
2023/03/24 11:49:38;;;;;;;6.00;2.23;;;;;;;;;;5074185;28;20227;-61
2023/03/24 11:52:07;;;;;;;4.27;2.57;;;;;;;;;;5074000;28;20200;-58
2023/03/24 11:54:35;;;;;;;5.60;2.47;;;;;;;;;;5074165;28;20203;-59
2023/03/24 11:57:03;;;;;;;4.67;2.30;;;;;;;;;;5074009;28;20203;-59
2023/03/24 11:59:34;;;;;;;5.53;2.50;;;;;;;;;;5074096;28;20257;-59
2023/03/24 12:02:04;;;;;;;4.67;2.23;;;;;;;;;;5073909;28;20217;-59
2023/03/24 12:04:39;;;;;;;7.27;2.43;;;;;;;;;;5073635;28;20239;-60
2023/03/24 12:07:13;;;;;;;7.07;2.37;;;;;;;;;;5073777;28;20187;-60
2023/03/24 12:09:42;;;;;;;4.40;1.80;;;;;;;;;;5073931;28;20218;-60
2023/03/24 12:12:19;;;;;;;4.30;1.80;;;;;;;;;;5073787;28;20229;-61
2023/03/24 12:14:53;;;;;;;5.27;1.90;;;;;;;;;;5073715;28;20199;-61
2023/03/24 12:17:22;;;;;;;6.23;2.60;;;;;;;;;;5073595;28;20204;-61
2023/03/24 12:20:06;;;;;;;4.37;2.17;;;;;;;;;;5073712;28;20191;-59
2023/03/24 12:22:38;;;;;;;5.90;2.37;;;;;;;;;;5073494;28;20646;-60
2023/03/24 12:25:16;;;;;;;4.77;2.13;;;;;;;;;;5073512;28;20191;-60
2023/03/24 12:27:46;;;;;;;8.63;2.37;;;;;;;;;;5072951;28;20649;-59
2023/03/24 12:30:17;;;;;;;4.93;1.93;;;;;;;;;;5069381;28;20227;-57
2023/03/24 12:32:51;;;;;;;6.23;2.17;;;;;;;;;;5073220;28;20211;-58
2023/03/24 12:35:28;;;;;;;6.00;2.40;;;;;;;;;;5073099;28;20214;-58
2023/03/24 12:37:59;;;;;;;5.63;2.33;;;;;;;;;;5073832;28;20278;-58
2023/03/24 12:40:46;;;;;;;6.37;2.20;;;;;;;;;;5073537;28;20264;-58
2023/03/24 12:43:19;;;;;;;5.37;2.03;;;;;;;;;;5068146;28;20223;-58
2023/03/24 12:45:52;;;;;;;4.97;2.00;;;;;;;;;;5073165;28;20286;-59
2023/03/24 12:48:27;;;;;;;5.37;2.57;;;;;;;;;;5072746;28;20238;-59
2023/03/24 12:51:00;;;;;;;5.47;2.50;;;;;;;;;;5073352;28;20230;-58
2023/03/24 12:53:35;;;;;;;5.70;2.40;;;;;;;;;;5073114;28;20225;-59
2023/03/24 12:56:04;;;;;;;6.77;2.37;;;;;;;;;;5072965;28;20299;-58
2023/03/24 12:58:36;;;;;;;5.83;2.10;;;;;;;;;;5069512;28;20278;-59
2023/03/24 13:01:06;;;;;;;10.07;2.40;;;;;;;;;;5071392;28;20495;-58
2023/03/24 13:03:37;;;;;;;6.13;2.37;;;;;;;;;;5072717;28;20589;-60
2023/03/24 13:06:07;;;;;;;5.77;1.93;;;;;;;;;;5072871;28;20200;-58
2023/03/24 13:08:36;;;;;;;4.03;2.00;;;;;;;;;;5072743;28;20286;-57
2023/03/24 13:11:05;;;;;;;6.10;2.30;;;;;;;;;;5072517;28;20227;-58
2023/03/24 13:13:32;;;;;;;2.93;1.87;;;;;;;;;;5072752;28;20407;-58
2023/03/24 13:16:00;;;;;;;6.63;2.23;;;;;;;;;;5072522;28;20224;-57
2023/03/24 13:18:30;;;;;;;4.63;2.03;;;;;;;;;;5072364;28;20550;-61
2023/03/24 13:21:00;;;;;;;3.87;1.80;;;;;;;;;;5072204;28;20286;-60
2023/03/24 13:23:43;;;;;;;3.60;1.77;;;;;;;;;;5072496;28;20226;-61
2023/03/24 13:26:15;;;;;;;5.80;1.93;;;;;;;;;;5072483;28;20768;-61
2023/03/24 13:28:44;;;;;;;4.57;1.80;;;;;;;;;;5072558;28;20204;-61
2023/03/24 13:31:11;;;;;;;8.10;2.07;;;;;;;;;;5072268;28;20227;-60
2023/03/24 13:33:40;;;;;;;4.33;1.80;;;;;;;;;;5072536;28;20310;-59
2023/03/24 13:36:23;;;;;;;4.60;1.80;;;;;;;;;;5072258;28;20676;-61
2023/03/24 13:38:50;;;;;;;4.70;1.73;;;;;;;;;;5072385;28;20568;-60
2023/03/24 13:41:18;;;;;;;6.33;2.13;;;;;;;;;;5072166;28;20195;-61
2023/03/24 13:43:46;;;;;;;5.57;2.00;;;;;;;;;;5071971;28;20697;-60
2023/03/24 13:46:13;;;;;;;5.03;2.07;;;;;;;;;;5071847;28;20214;-60
2023/03/24 13:48:42;;;;;;;3.23;1.80;;;;;;;;;;5071578;28;20665;-60
2023/03/24 13:51:16;;;;;;;3.83;1.70;;;;;;;;;;5069816;28;20224;-59
2023/03/24 13:53:44;;;;;;;5.03;1.97;;;;;;;;;;5071732;28;20565;-60
2023/03/24 13:56:11;;;;;;;4.43;2.07;;;;;;;;;;5071656;28;20191;-61
2023/03/24 13:58:48;;;;;;;4.83;2.00;;;;;;;;;;5071753;28;20245;-61
2023/03/24 14:01:16;;;;;;;4.00;1.90;;;;;;;;;;5071414;28;20211;-60
2023/03/24 14:03:44;;;;;;;2.87;1.53;;;;;;;;;;5071224;28;20304;-60
2023/03/24 14:06:10;;;;;;;6.03;1.90;;;;;;;;;;5071228;28;20696;-61
2023/03/24 14:08:42;;;;;;;4.00;1.60;;;;;;;;;;5071491;28;20211;-61
2023/03/24 14:11:10;;;;;;;4.57;1.93;;;;;;;;;;5071266;28;20310;-60
2023/03/24 14:13:37;;;;;;;3.87;2.17;;;;;;;;;;5071517;28;20200;-61
2023/03/24 14:16:22;;;;;;;4.40;1.80;;;;;;;;;;5071337;28;20230;-60
2023/03/24 14:18:50;;;;;;;5.23;1.93;;;;;;;;;;5071407;28;20199;-62
2023/03/24 14:21:28;;;;;;;4.40;1.97;;;;;;;;;;5071191;28;20196;-61
2023/03/24 14:23:55;;;;;;;4.67;1.87;;;;;;;;;;5071592;28;20192;-61
2023/03/24 14:26:29;;;;;;;5.00;1.97;;;;;;;;;;5071259;28;20673;-61
2023/03/24 14:28:56;;;;;;;4.87;1.90;;;;;;;;;;5071241;28;20256;-61
2023/03/24 14:31:23;;;;;;;4.07;1.70;;;;;;;;;;5071193;28;20331;-61
2023/03/24 14:34:10;;;;;;;4.77;1.97;;;;;;;;;;5070974;28;20225;-61
2023/03/24 14:36:38;;;;;;;4.87;1.80;;;;;;;;;;5066227;28;20290;-61
2023/03/24 14:39:12;;;;;;;7.27;2.13;;;;;;;;;;5071069;28;20200;-62
2023/03/24 14:41:40;;;;;;;4.40;1.70;;;;;;;;;;5071479;28;20191;-61
2023/03/24 14:44:06;;;;;;;2.10;1.30;;;;;;;;;;5071237;28;20290;-60
2023/03/24 14:46:34;;;;;;;3.63;1.33;;;;;;;;;;5071146;28;20222;-61
2023/03/24 14:49:03;;;;;;;3.40;1.23;;;;;;;;;;5071052;28;20197;-60
2023/03/24 14:51:35;;;;;;;1.63;1.20;;;;;;;;;;5073211;28;20645;-60